createdAt,value
2018-12-06T00:01:38.971Z,8.66
2018-12-06T00:04:10.351Z,8.67
2018-12-06T00:06:37.773Z,8.66
2018-12-06T00:09:05.300Z,8.66
2018-12-06T00:11:47.310Z,8.67
2018-12-06T00:14:14.878Z,8.71
2018-12-06T00:16:42.385Z,8.74
2018-12-06T00:19:09.994Z,8.76
2018-12-06T00:21:37.413Z,8.76
2018-12-06T00:24:04.846Z,8.77
2018-12-06T00:26:32.281Z,8.79
2018-12-06T00:29:06.524Z,8.81
2018-12-06T00:31:34.090Z,8.83
2018-12-06T00:34:01.534Z,8.82
2018-12-06T00:36:28.950Z,8.83
2018-12-06T00:38:56.360Z,8.85
2018-12-06T00:41:23.810Z,8.86
2018-12-06T00:43:51.255Z,8.87
2018-12-06T00:46:18.697Z,8.87
2018-12-06T00:48:51.802Z,8.87
2018-12-06T00:51:19.249Z,8.88
2018-12-06T00:53:46.698Z,8.88
2018-12-06T00:56:14.139Z,8.88
2018-12-06T00:58:41.570Z,8.86
2018-12-06T01:01:09.042Z,8.86
2018-12-06T01:03:36.553Z,8.85
2018-12-06T01:06:03.979Z,8.87
2018-12-06T01:08:31.399Z,8.87
2018-12-06T01:10:58.830Z,8.88
2018-12-06T01:13:26.264Z,8.88
2018-12-06T01:15:58.717Z,8.87
2018-12-06T01:18:31.080Z,8.89
2018-12-06T01:20:58.545Z,8.91
2018-12-06T01:23:34.036Z,8.93
2018-12-06T01:26:01.471Z,8.95
2018-12-06T01:28:28.891Z,8.98
2018-12-06T01:30:56.319Z,8.99
2018-12-06T01:33:23.885Z,9.02
2018-12-06T01:35:55.373Z,9.03
2018-12-06T01:38:22.805Z,9.07
2018-12-06T01:40:50.373Z,9.08
2018-12-06T01:43:17.815Z,9.10
2018-12-06T01:45:45.213Z,9.11
2018-12-06T01:48:12.739Z,9.12
2018-12-06T01:50:40.218Z,9.14
2018-12-06T01:53:07.664Z,9.15
2018-12-06T01:55:35.093Z,9.14
2018-12-06T01:58:07.366Z,9.17
2018-12-06T02:00:34.766Z,9.16
2018-12-06T02:03:02.223Z,9.15
2018-12-06T02:05:29.641Z,9.16
2018-12-06T02:07:57.172Z,9.17
2018-12-06T02:10:24.649Z,9.20
2018-12-06T02:12:52.082Z,9.20
2018-12-06T02:15:19.502Z,9.20
2018-12-06T02:17:46.928Z,9.19
2018-12-06T02:20:19.304Z,9.19
2018-12-06T02:22:46.764Z,9.19
2018-12-06T02:25:14.230Z,9.20
2018-12-06T02:27:41.832Z,9.21
2018-12-06T02:30:09.352Z,9.22
2018-12-06T02:32:36.896Z,9.23
2018-12-06T02:37:37.188Z,9.22
2018-12-06T02:40:06.389Z,9.21
2018-12-06T02:42:33.907Z,9.19
2018-12-06T02:45:01.370Z,9.20
2018-12-06T02:47:35.676Z,9.21
2018-12-06T02:50:08.665Z,9.20
2018-12-06T02:52:36.114Z,9.22
2018-12-06T02:57:42.050Z,9.23
2018-12-06T03:00:09.651Z,9.23
2018-12-06T03:02:37.063Z,9.24
2018-12-06T03:05:04.778Z,9.27
2018-12-06T03:07:32.303Z,9.26
2018-12-06T03:09:59.921Z,9.27
2018-12-06T03:12:27.353Z,9.29
2018-12-06T03:14:54.897Z,9.29
2018-12-06T03:17:22.335Z,9.32
2018-12-06T03:19:50.602Z,9.34
2018-12-06T03:22:18.033Z,9.33
2018-12-06T03:24:45.891Z,9.35
2018-12-06T03:27:13.324Z,9.37
2018-12-06T03:32:42.001Z,9.42
2018-12-06T03:35:09.428Z,9.44
2018-12-06T03:37:36.969Z,9.48
2018-12-06T03:40:05.747Z,9.49
2018-12-06T03:45:25.442Z,9.52
2018-12-06T03:47:52.876Z,9.54
2018-12-06T03:50:20.602Z,9.54
2018-12-06T03:52:48.035Z,9.55
2018-12-06T03:55:15.455Z,9.57
2018-12-06T03:57:42.894Z,9.59
2018-12-06T04:00:10.476Z,9.62
2018-12-06T04:05:36.913Z,9.67
2018-12-06T04:08:04.452Z,9.70
2018-12-06T04:10:32.018Z,9.73
2018-12-06T04:13:05.570Z,9.73
2018-12-06T04:15:38.459Z,9.75
2018-12-06T04:18:05.907Z,9.75
2018-12-06T04:20:34.239Z,9.78
2018-12-06T04:23:01.658Z,9.81
2018-12-06T04:25:29.233Z,9.83
2018-12-06T04:27:56.683Z,9.86
2018-12-06T04:30:24.111Z,9.86
2018-12-06T04:32:51.928Z,9.85
2018-12-06T04:35:19.403Z,9.90
2018-12-06T04:37:46.991Z,9.91
2018-12-06T04:40:14.452Z,9.93
2018-12-06T04:42:41.863Z,9.95
2018-12-06T04:45:10.547Z,9.95
2018-12-06T04:47:38.247Z,9.95
2018-12-06T04:50:06.790Z,9.99
2018-12-06T04:52:34.206Z,10.00
2018-12-06T04:55:06.403Z,10.02
2018-12-06T04:57:33.810Z,9.99
2018-12-06T05:00:01.351Z,10.09
2018-12-06T05:02:35.350Z,10.13
2018-12-06T05:05:03.105Z,10.14
2018-12-06T05:07:30.517Z,10.19
2018-12-06T05:09:58.092Z,10.23
2018-12-06T05:12:26.496Z,10.24
2018-12-06T05:14:53.931Z,10.27
2018-12-06T05:17:24.315Z,10.28
2018-12-06T05:19:51.959Z,10.29
2018-12-06T05:22:19.563Z,10.33
2018-12-06T05:24:47.051Z,10.34
2018-12-06T05:27:14.498Z,10.38
2018-12-06T05:29:41.925Z,10.40
2018-12-06T05:34:46.328Z,10.42
2018-12-06T05:37:13.830Z,10.45
2018-12-06T05:39:41.254Z,10.47
2018-12-06T05:42:08.695Z,10.43
2018-12-06T05:44:36.116Z,10.49
2018-12-06T05:47:06.407Z,10.51
2018-12-06T05:49:33.864Z,10.52
2018-12-06T05:52:01.317Z,10.52
2018-12-06T05:54:28.759Z,10.53
2018-12-06T05:56:56.221Z,10.53
2018-12-06T05:59:23.667Z,10.55
2018-12-06T06:01:51.914Z,10.54
2018-12-06T06:04:19.365Z,10.54
2018-12-06T06:06:46.806Z,10.55
2018-12-06T06:09:14.247Z,10.57
2018-12-06T06:11:41.676Z,10.56
2018-12-06T06:14:09.124Z,10.57
2018-12-06T06:16:36.547Z,10.60
2018-12-06T06:19:04.014Z,10.61
2018-12-06T06:21:32.410Z,10.64
2018-12-06T06:23:59.855Z,10.64
2018-12-06T06:26:27.395Z,10.64
2018-12-06T06:28:54.960Z,10.68
2018-12-06T06:31:22.415Z,10.69
2018-12-06T06:33:52.403Z,10.71
2018-12-06T06:36:25.703Z,10.75
2018-12-06T06:38:53.151Z,10.77
2018-12-06T06:41:20.635Z,10.78
2018-12-06T06:43:48.264Z,10.80
2018-12-06T06:46:15.728Z,10.81
2018-12-06T06:48:47.006Z,10.82
2018-12-06T06:51:14.451Z,10.84
2018-12-06T06:53:41.940Z,10.86
2018-12-06T06:56:09.363Z,10.87
2018-12-06T06:58:36.829Z,10.87
2018-12-06T07:01:04.274Z,10.90
2018-12-06T07:03:31.939Z,10.91
2018-12-06T07:05:59.388Z,10.92
2018-12-06T07:08:26.959Z,10.94
2018-12-06T07:10:54.388Z,10.95
2018-12-06T07:13:22.138Z,10.98
2018-12-06T07:15:52.518Z,11.00
2018-12-06T07:18:20.017Z,11.01
2018-12-06T07:20:47.461Z,11.03
2018-12-06T07:23:14.883Z,11.05
2018-12-06T07:25:46.241Z,11.07
2018-12-06T07:28:12.075Z,11.09
2018-12-06T07:30:39.504Z,11.12
2018-12-06T07:33:06.948Z,11.14
2018-12-06T07:35:34.367Z,11.16
2018-12-06T07:38:01.818Z,11.16
2018-12-06T07:40:29.262Z,11.14
2018-12-06T07:43:04.823Z,11.18
2018-12-06T07:45:32.337Z,11.21
2018-12-06T07:47:59.860Z,11.22
2018-12-06T07:50:27.298Z,11.23
2018-12-06T07:52:54.740Z,11.24
2018-12-06T07:58:01.090Z,11.28
2018-12-06T08:00:32.335Z,11.30
2018-12-06T08:03:00.635Z,11.32
2018-12-06T08:08:22.128Z,11.36
2018-12-06T08:10:49.580Z,11.39
2018-12-06T08:13:18.879Z,11.41
2018-12-06T08:15:46.288Z,11.43
2018-12-06T08:18:13.737Z,11.46
2018-12-06T08:20:41.183Z,11.49
2018-12-06T08:23:08.612Z,11.50
2018-12-06T08:25:42.769Z,11.52
2018-12-06T08:28:10.257Z,11.55
2018-12-06T08:30:37.700Z,11.58
2018-12-06T08:33:05.136Z,11.60
2018-12-06T08:35:33.498Z,11.61
2018-12-06T08:38:01.205Z,11.63
2018-12-06T08:40:28.646Z,11.65
2018-12-06T08:43:00.220Z,11.67
2018-12-06T08:45:27.659Z,11.70
2018-12-06T08:47:55.165Z,11.73
2018-12-06T08:50:22.635Z,11.76
2018-12-06T08:52:50.070Z,11.77
2018-12-06T08:55:17.586Z,11.81
2018-12-06T08:57:45.029Z,11.82
2018-12-06T09:00:12.562Z,11.85
2018-12-06T09:02:40.128Z,11.88
2018-12-06T09:05:14.392Z,11.93
2018-12-06T09:07:41.835Z,11.95
2018-12-06T09:10:09.359Z,11.98
2018-12-06T09:12:39.791Z,12.01
2018-12-06T09:15:09.311Z,12.04
2018-12-06T09:17:36.772Z,12.06
2018-12-06T09:20:05.314Z,12.09
2018-12-06T09:22:32.777Z,12.12
2018-12-06T09:25:00.214Z,12.14
2018-12-06T09:27:27.679Z,12.18
2018-12-06T09:32:56.196Z,12.24
2018-12-06T09:37:57.454Z,12.29
2018-12-06T09:40:24.976Z,12.30
2018-12-06T09:42:56.349Z,12.30
2018-12-06T09:45:23.795Z,12.30
2018-12-06T09:47:55.141Z,12.33
2018-12-06T09:50:22.575Z,12.34
2018-12-06T09:52:51.932Z,12.36
2018-12-06T09:55:19.363Z,12.36
2018-12-06T09:57:46.811Z,12.38
2018-12-06T10:00:15.624Z,12.40
2018-12-06T10:02:43.118Z,12.43
2018-12-06T10:05:10.556Z,12.46
2018-12-06T10:07:38.062Z,12.47
2018-12-06T10:10:09.739Z,12.50
2018-12-06T10:12:37.214Z,12.56
2018-12-06T10:15:05.023Z,12.60
2018-12-06T10:17:32.456Z,12.64
2018-12-06T10:20:04.794Z,12.62
2018-12-06T10:22:32.321Z,12.60
2018-12-06T10:24:59.751Z,12.56
2018-12-06T10:27:27.187Z,12.55
2018-12-06T10:29:54.640Z,12.55
2018-12-06T10:32:22.059Z,12.54
2018-12-06T10:34:53.678Z,12.54
2018-12-06T10:37:21.229Z,12.52
2018-12-06T10:39:48.707Z,12.52
2018-12-06T10:42:16.115Z,12.52
2018-12-06T10:44:43.608Z,12.52
2018-12-06T10:47:11.034Z,12.51
2018-12-06T10:49:38.551Z,12.49
2018-12-06T10:52:10.933Z,12.50
2018-12-06T10:54:38.390Z,12.50
2018-12-06T10:57:05.839Z,12.50
2018-12-06T10:59:39.776Z,12.51
2018-12-06T11:05:09.372Z,12.63
2018-12-06T11:07:36.856Z,12.66
2018-12-06T11:10:10.108Z,12.67
2018-12-06T11:12:37.570Z,12.68
2018-12-06T11:15:15.066Z,12.66
2018-12-06T11:17:42.577Z,12.65
2018-12-06T11:20:12.127Z,12.64
2018-12-06T11:22:44.528Z,12.62
2018-12-06T11:25:12.086Z,12.57
2018-12-06T11:27:39.533Z,12.55
2018-12-06T11:30:08.007Z,12.55
2018-12-06T11:32:39.531Z,12.55
2018-12-06T11:35:07.012Z,12.51
2018-12-06T11:37:34.598Z,12.50
2018-12-06T11:40:02.066Z,12.49
2018-12-06T11:42:29.522Z,12.51
2018-12-06T11:44:56.955Z,12.53
2018-12-06T11:49:59.248Z,12.54
2018-12-06T11:55:25.644Z,12.55
2018-12-06T11:57:53.178Z,12.59
2018-12-06T12:00:24.706Z,12.60
2018-12-06T12:02:52.274Z,12.61
2018-12-06T12:05:19.760Z,12.62
2018-12-06T12:07:47.283Z,12.62
2018-12-06T12:10:14.730Z,12.63
2018-12-06T12:12:42.273Z,12.63
2018-12-06T12:15:09.800Z,12.65
2018-12-06T12:17:39.085Z,12.65
2018-12-06T12:20:07.176Z,12.63
2018-12-06T12:22:34.741Z,12.65
2018-12-06T12:25:12.669Z,12.69
2018-12-06T12:27:40.213Z,12.72
2018-12-06T12:30:08.651Z,12.78
2018-12-06T12:32:36.115Z,12.81
2018-12-06T12:35:03.841Z,12.82
2018-12-06T12:37:31.256Z,12.84
2018-12-06T12:39:59.652Z,12.88
2018-12-06T12:42:27.086Z,12.90
2018-12-06T12:44:54.532Z,12.94
2018-12-06T12:47:22.058Z,12.98
2018-12-06T12:49:49.564Z,13.01
2018-12-06T12:52:17.255Z,13.06
2018-12-06T12:54:44.746Z,13.08
2018-12-06T12:57:12.257Z,13.10
2018-12-06T12:59:39.720Z,13.11
2018-12-06T13:02:11.054Z,13.11
2018-12-06T13:04:40.294Z,13.11
2018-12-06T13:07:10.471Z,13.11
2018-12-06T13:12:32.063Z,13.17
2018-12-06T13:14:59.600Z,13.13
2018-12-06T13:17:28.876Z,13.14
2018-12-06T13:19:56.374Z,13.15
2018-12-06T13:22:23.812Z,13.14
2018-12-06T13:24:51.338Z,13.15
2018-12-06T13:27:18.796Z,13.13
2018-12-06T13:29:46.249Z,13.13
2018-12-06T13:32:30.701Z,13.13
2018-12-06T13:35:02.162Z,13.14
2018-12-06T13:37:29.631Z,13.16
2018-12-06T13:39:57.152Z,13.15
2018-12-06T13:42:24.774Z,13.15
2018-12-06T13:44:56.104Z,13.15
2018-12-06T13:47:23.572Z,13.15
2018-12-06T13:49:51.093Z,13.13
2018-12-06T13:52:18.519Z,13.14
2018-12-06T13:54:46.007Z,13.15
2018-12-06T13:57:13.437Z,13.13
2018-12-06T13:59:44.941Z,13.14
2018-12-06T14:02:12.467Z,13.16
2018-12-06T14:04:39.974Z,13.18
2018-12-06T14:07:16.471Z,13.18
2018-12-06T14:09:44.887Z,13.18
2018-12-06T14:12:12.341Z,13.16
2018-12-06T14:14:44.665Z,13.15
2018-12-06T14:17:12.198Z,13.12
2018-12-06T14:19:39.673Z,13.10
2018-12-06T14:22:07.244Z,13.10
2018-12-06T14:24:34.882Z,13.12
2018-12-06T14:27:05.352Z,13.12
2018-12-06T14:29:32.802Z,13.08
2018-12-06T14:32:00.309Z,13.08
2018-12-06T14:37:02.391Z,13.08
2018-12-06T14:39:30.025Z,13.08
2018-12-06T14:41:57.456Z,13.08
2018-12-06T14:44:24.899Z,13.07
2018-12-06T14:46:52.330Z,13.09
2018-12-06T14:49:19.811Z,13.08
2018-12-06T14:51:47.322Z,13.07
2018-12-06T14:54:18.860Z,13.06
2018-12-06T14:56:51.328Z,13.05
2018-12-06T14:59:18.799Z,13.07
2018-12-06T15:01:46.323Z,13.05
2018-12-06T15:04:18.730Z,13.05
2018-12-06T15:06:46.218Z,13.04
2018-12-06T15:09:14.590Z,13.02
2018-12-06T15:11:42.118Z,13.02
2018-12-06T15:14:09.567Z,13.01
2018-12-06T15:16:37.016Z,13.01
2018-12-06T15:19:04.469Z,13.02
2018-12-06T15:21:38.359Z,13.00
2018-12-06T15:24:05.783Z,13.00
2018-12-06T15:26:33.349Z,13.02
2018-12-06T15:29:00.820Z,13.02
2018-12-06T15:31:28.275Z,13.00
2018-12-06T15:33:55.785Z,12.99
2018-12-06T15:36:23.244Z,12.98
2018-12-06T15:38:50.691Z,12.97
2018-12-06T15:41:18.122Z,12.98
2018-12-06T15:43:45.590Z,12.99
2018-12-06T15:46:19.033Z,12.99
2018-12-06T15:48:48.583Z,12.98
2018-12-06T15:51:15.991Z,12.99
2018-12-06T15:53:43.581Z,13.00
2018-12-06T15:56:10.998Z,13.00
2018-12-06T15:58:38.443Z,13.00
2018-12-06T16:01:09.844Z,13.01
2018-12-06T16:03:43.001Z,13.01
2018-12-06T16:06:10.432Z,13.01
2018-12-06T16:08:37.931Z,13.00
2018-12-06T16:11:05.375Z,13.01
2018-12-06T16:13:39.277Z,13.02
2018-12-06T16:16:06.718Z,13.03
2018-12-06T16:18:34.291Z,13.03
2018-12-06T16:21:01.877Z,13.02
2018-12-06T16:23:29.337Z,13.03
2018-12-06T16:25:56.825Z,13.04
2018-12-06T16:28:24.280Z,13.04
2018-12-06T16:30:52.717Z,13.04
2018-12-06T16:33:20.160Z,13.04
2018-12-06T16:35:47.726Z,13.06
2018-12-06T16:38:15.178Z,13.04
2018-12-06T16:40:42.648Z,13.04
2018-12-06T16:43:10.079Z,13.05
2018-12-06T16:45:37.689Z,13.04
2018-12-06T16:48:05.132Z,13.06
2018-12-06T16:53:33.561Z,13.07
2018-12-06T16:56:01.023Z,13.06
2018-12-06T16:58:28.502Z,13.08
2018-12-06T17:00:55.935Z,13.07
2018-12-06T17:03:23.438Z,13.08
2018-12-06T17:05:50.909Z,13.08
2018-12-06T17:08:19.323Z,13.09
2018-12-06T17:10:46.770Z,13.09
2018-12-06T17:13:14.202Z,13.11
2018-12-06T17:15:41.643Z,13.11
2018-12-06T17:18:11.971Z,13.12
2018-12-06T17:20:39.593Z,13.12
2018-12-06T17:23:07.057Z,13.13
2018-12-06T17:25:34.490Z,13.13
2018-12-06T17:28:01.937Z,13.12
2018-12-06T17:30:33.231Z,13.12
2018-12-06T17:33:00.688Z,13.14
2018-12-06T17:35:28.148Z,13.15
2018-12-06T17:37:55.621Z,13.15
2018-12-06T17:40:23.085Z,13.13
2018-12-06T17:42:50.536Z,13.14
2018-12-06T17:45:26.622Z,13.13
2018-12-06T17:47:56.959Z,13.14
2018-12-06T17:50:24.429Z,13.14
2018-12-06T17:52:51.974Z,13.14
2018-12-06T17:55:19.456Z,13.15
2018-12-06T17:57:46.893Z,13.16
2018-12-06T18:00:14.323Z,13.16
2018-12-06T18:02:41.791Z,13.17
2018-12-06T18:05:09.444Z,13.19
2018-12-06T18:07:38.834Z,13.19
2018-12-06T18:10:06.859Z,13.20
2018-12-06T18:12:34.360Z,13.20
2018-12-06T18:15:01.783Z,13.21
2018-12-06T18:17:30.323Z,13.22
2018-12-06T18:19:57.789Z,13.23
2018-12-06T18:22:25.243Z,13.23
2018-12-06T18:24:52.685Z,13.22
2018-12-06T18:27:20.242Z,13.22
2018-12-06T18:29:47.686Z,13.23
2018-12-06T18:32:15.146Z,13.23
2018-12-06T18:34:42.627Z,13.22
2018-12-06T18:37:14.953Z,13.23
2018-12-06T18:39:42.381Z,13.24
2018-12-06T18:42:10.286Z,13.24
2018-12-06T18:44:37.759Z,13.24
2018-12-06T18:47:05.683Z,13.23
2018-12-06T18:49:33.152Z,13.22
2018-12-06T18:52:02.647Z,13.20
2018-12-06T18:54:30.142Z,13.17
2018-12-06T18:56:57.575Z,13.16
2018-12-06T18:59:25.981Z,13.14
2018-12-06T19:01:58.252Z,13.12
2018-12-06T19:04:26.636Z,13.13
2018-12-06T19:06:54.073Z,13.15
2018-12-06T19:09:21.584Z,13.15
2018-12-06T19:11:49.038Z,13.17
2018-12-06T19:14:21.754Z,13.17
2018-12-06T19:16:46.052Z,13.18
2018-12-06T19:19:13.508Z,13.20
2018-12-06T19:21:40.954Z,13.22
2018-12-06T19:24:08.410Z,13.25
2018-12-06T19:26:38.841Z,13.26
2018-12-06T19:29:06.277Z,13.26
2018-12-06T19:31:33.741Z,13.28
2018-12-06T19:34:01.195Z,13.26
2018-12-06T19:36:28.650Z,13.26
2018-12-06T19:38:56.101Z,13.26
2018-12-06T19:41:23.564Z,13.28
2018-12-06T19:43:50.990Z,13.29
2018-12-06T19:46:18.464Z,13.29
2018-12-06T19:48:45.941Z,13.31
2018-12-06T19:51:13.386Z,13.31
2018-12-06T19:53:40.826Z,13.33
2018-12-06T19:56:08.308Z,13.31
2018-12-06T19:58:35.887Z,13.30
2018-12-06T20:03:56.811Z,13.31
2018-12-06T20:06:30.852Z,13.33
2018-12-06T20:09:02.427Z,13.32
2018-12-06T20:11:29.902Z,13.34
2018-12-06T20:13:57.370Z,13.35
2018-12-06T20:16:24.831Z,13.33
2018-12-06T20:19:10.246Z,13.33
2018-12-06T20:21:37.709Z,13.34
2018-12-06T20:24:05.154Z,13.34
2018-12-06T20:26:32.581Z,13.35
2018-12-06T20:31:56.067Z,13.34
2018-12-06T20:34:23.709Z,13.35
2018-12-06T20:36:51.136Z,13.35
2018-12-06T20:39:20.448Z,13.34
2018-12-06T20:41:47.892Z,13.34
2018-12-06T20:47:13.864Z,13.35
2018-12-06T20:49:41.325Z,13.36
2018-12-06T20:52:08.802Z,13.34
2018-12-06T20:54:36.346Z,13.34
2018-12-06T20:57:03.899Z,13.33
2018-12-06T20:59:31.400Z,13.33
2018-12-06T21:01:58.826Z,13.34
2018-12-06T21:04:27.232Z,13.34
2018-12-06T21:06:54.669Z,13.35
2018-12-06T21:09:22.986Z,13.36
2018-12-06T21:11:50.425Z,13.37
2018-12-06T21:14:22.089Z,13.39
2018-12-06T21:16:47.303Z,13.40
2018-12-06T21:19:14.912Z,13.40
2018-12-06T21:21:42.400Z,13.40
2018-12-06T21:24:11.757Z,13.39
2018-12-06T21:26:39.227Z,13.39
2018-12-06T21:29:09.737Z,13.36
2018-12-06T21:31:37.188Z,13.34
2018-12-06T21:34:04.653Z,13.34
2018-12-06T21:36:32.219Z,13.33
2018-12-06T21:38:59.679Z,13.33
2018-12-06T21:41:27.152Z,13.34
2018-12-06T21:47:01.114Z,13.34
2018-12-06T21:49:28.818Z,13.34
2018-12-06T21:51:56.271Z,13.33
2018-12-06T21:54:27.757Z,13.33
2018-12-06T21:56:55.218Z,13.34
2018-12-06T21:59:22.684Z,13.32
2018-12-06T22:01:54.119Z,13.33
2018-12-06T22:04:26.427Z,13.32
2018-12-06T22:06:53.872Z,13.27
2018-12-06T22:09:21.331Z,13.26
2018-12-06T22:11:50.832Z,13.23
2018-12-06T22:14:23.131Z,13.18
2018-12-06T22:16:50.583Z,13.16
2018-12-06T22:22:33.814Z,13.08
2018-12-06T22:25:01.349Z,13.01
2018-12-06T22:27:28.837Z,12.97
2018-12-06T22:29:56.394Z,12.95
2018-12-06T22:32:23.908Z,12.94
2018-12-06T22:34:52.256Z,12.91
2018-12-06T22:37:19.930Z,12.88
2018-12-06T22:39:47.382Z,12.88
2018-12-06T22:42:18.891Z,12.88
2018-12-06T22:44:48.403Z,12.86
2018-12-06T22:47:17.865Z,12.88
2018-12-06T22:49:45.347Z,12.84
2018-12-06T22:52:12.956Z,12.79
2018-12-06T22:54:40.478Z,12.77
2018-12-06T22:57:07.908Z,12.78
2018-12-06T22:59:35.377Z,12.75
2018-12-06T23:02:03.115Z,12.74
2018-12-06T23:04:33.489Z,12.75
2018-12-06T23:07:00.957Z,12.74
2018-12-06T23:09:28.471Z,12.75
2018-12-06T23:11:55.910Z,12.74
2018-12-06T23:14:27.379Z,12.71
2018-12-06T23:16:58.927Z,12.67
2018-12-06T23:19:30.377Z,12.66
2018-12-06T23:21:57.793Z,12.61
2018-12-06T23:24:25.265Z,12.61
2018-12-06T23:26:52.726Z,12.60
2018-12-06T23:29:20.159Z,12.58
2018-12-06T23:31:47.616Z,12.60
2018-12-06T23:34:15.018Z,12.60
2018-12-06T23:36:42.549Z,12.63
2018-12-06T23:39:09.979Z,12.63
2018-12-06T23:41:37.424Z,12.67
2018-12-06T23:44:06.792Z,12.69
2018-12-06T23:46:34.247Z,12.69
2018-12-06T23:49:01.779Z,12.70
2018-12-06T23:51:38.499Z,12.70
2018-12-06T23:54:05.942Z,12.70
2018-12-06T23:56:33.531Z,12.72
2018-12-06T23:59:01.039Z,12.72
